Time;durP1;ratioP1;P1;durP2;ratioP2;P2;SDS_P1;SDS_P2;PMS_P1;PMS_P2;Temp;Humidity;BMP_temperature;BMP_pressure;BME280_temperature;BME280_humidity;BME280_pressure;Samples;Min_cycle;Max_cycle;Signal;HPM_P1;HPM_P2
2020/12/26 00:01:14;;;;;;;11.63;6.07;;;1.70;88.40;;;;;;5035231;28;20473;-74
2020/12/26 00:03:40;;;;;;;10.60;5.73;;;1.70;88.60;;;;;;5052435;28;20040;-74
2020/12/26 00:06:06;;;;;;;12.83;5.47;;;1.70;88.60;;;;;;5035145;28;20021;-74
2020/12/26 00:08:35;;;;;;;11.67;5.07;;;1.70;88.70;;;;;;5035281;28;20029;-74
2020/12/26 00:11:01;;;;;;;8.70;5.17;;;1.70;88.60;;;;;;5034602;28;20091;-74
2020/12/26 00:13:27;;;;;;;9.53;5.30;;;1.80;88.50;;;;;;5035035;28;20040;-74
2020/12/26 00:15:53;;;;;;;11.73;5.60;;;1.80;88.50;;;;;;5034038;28;20033;-74
2020/12/26 00:18:19;;;;;;;11.03;5.67;;;1.80;88.50;;;;;;5053156;28;20035;-74
2020/12/26 00:20:45;;;;;;;12.63;5.67;;;1.80;88.30;;;;;;5052123;28;20036;-74
2020/12/26 00:23:10;;;;;;;8.00;5.03;;;1.90;88.10;;;;;;5034949;28;20037;-74
2020/12/26 00:25:36;;;;;;;11.73;5.60;;;1.80;88.00;;;;;;5034890;28;20025;-74
2020/12/26 00:28:05;;;;;;;15.77;5.90;;;1.90;87.90;;;;;;5034551;28;20470;-75
2020/12/26 00:30:30;;;;;;;12.27;5.67;;;1.90;87.80;;;;;;5034876;28;20148;-74
2020/12/26 00:32:56;;;;;;;13.80;6.10;;;2.00;87.60;;;;;;5052101;28;20071;-74
2020/12/26 00:35:21;;;;;;;14.30;6.70;;;2.00;87.40;;;;;;5034855;28;20478;-74
2020/12/26 00:37:47;;;;;;;12.67;5.73;;;2.00;87.40;;;;;;5034208;28;20074;-74
2020/12/26 00:40:13;;;;;;;12.53;6.37;;;2.10;87.30;;;;;;5034780;28;20469;-74
2020/12/26 00:42:38;;;;;;;14.27;6.63;;;2.00;87.40;;;;;;5034053;28;20036;-74
2020/12/26 00:45:04;;;;;;;15.73;7.30;;;2.00;87.50;;;;;;5052793;28;20056;-74
2020/12/26 00:47:30;;;;;;;12.43;6.37;;;2.00;87.40;;;;;;5034639;28;20036;-74
2020/12/26 00:49:55;;;;;;;11.37;6.63;;;2.00;87.70;;;;;;5034018;28;20378;-74
2020/12/26 00:52:21;;;;;;;14.43;7.30;;;2.00;87.90;;;;;;5034241;28;20080;-74
2020/12/26 00:54:46;;;;;;;14.60;6.53;;;1.90;88.00;;;;;;5033885;28;20098;-74
2020/12/26 00:57:12;;;;;;;11.63;6.20;;;1.90;88.20;;;;;;5034485;28;20025;-74
2020/12/26 00:59:38;;;;;;;11.70;6.73;;;2.00;88.10;;;;;;5052378;28;20110;-74
2020/12/26 01:02:04;;;;;;;15.13;7.63;;;1.90;88.20;;;;;;5051996;28;20036;-74
2020/12/26 01:04:30;;;;;;;12.40;6.43;;;1.90;88.40;;;;;;5034625;28;20025;-74
2020/12/26 01:06:56;;;;;;;15.00;6.67;;;1.90;88.60;;;;;;5051498;28;20539;-74
2020/12/26 01:09:25;;;;;;;12.37;6.20;;;1.80;88.90;;;;;;5052273;28;20062;-74
2020/12/26 01:11:51;;;;;;;14.67;6.80;;;1.80;88.90;;;;;;5052878;28;20516;-74
2020/12/26 01:14:17;;;;;;;13.40;6.50;;;1.90;88.80;;;;;;5056337;28;20509;-74
2020/12/26 01:16:47;;;;;;;12.97;6.63;;;1.90;88.90;;;;;;5055598;28;20108;-74
2020/12/26 01:19:13;;;;;;;16.47;7.30;;;1.90;88.90;;;;;;5038458;28;20029;-74
2020/12/26 01:21:39;;;;;;;15.37;6.73;;;1.90;89.00;;;;;;5056080;28;20060;-74
2020/12/26 01:24:04;;;;;;;13.63;7.17;;;2.00;88.90;;;;;;5055530;28;20029;-74
2020/12/26 01:26:30;;;;;;;13.63;6.77;;;2.10;88.60;;;;;;5056229;28;20033;-74
2020/12/26 01:28:55;;;;;;;14.10;7.10;;;2.10;88.50;;;;;;5037253;28;20470;-74
2020/12/26 01:31:21;;;;;;;12.10;7.07;;;2.10;88.50;;;;;;5055950;28;20107;-74
2020/12/26 01:33:47;;;;;;;12.87;6.90;;;2.10;88.60;;;;;;5037498;28;20363;-74
2020/12/26 01:36:13;;;;;;;12.23;7.30;;;2.10;88.50;;;;;;5038120;28;20021;-74
2020/12/26 01:38:39;;;;;;;11.00;6.27;;;2.10;88.50;;;;;;5055832;28;20021;-74
2020/12/26 01:41:05;;;;;;;14.80;6.40;;;2.10;88.50;;;;;;5054948;28;20056;-74
2020/12/26 01:43:31;;;;;;;12.43;6.90;;;2.10;88.30;;;;;;5055633;28;20118;-74
2020/12/26 01:45:57;;;;;;;12.87;6.27;;;2.10;88.60;;;;;;5037312;28;20029;-74
2020/12/26 01:48:24;;;;;;;17.50;6.87;;;2.10;88.50;;;;;;5038010;28;20032;-74
2020/12/26 01:50:51;;;;;;;12.47;6.83;;;2.20;88.60;;;;;;5055019;28;20048;-74
2020/12/26 01:53:18;;;;;;;13.97;6.47;;;2.20;88.70;;;;;;5055478;28;20052;-74
2020/12/26 01:55:47;;;;;;;12.17;6.87;;;2.20;88.70;;;;;;5054696;28;20107;-74
2020/12/26 01:58:14;;;;;;;14.47;7.17;;;2.20;88.70;;;;;;5055437;28;20029;-74
2020/12/26 02:00:40;;;;;;;12.03;6.90;;;2.20;88.50;;;;;;5055419;28;20029;-75
2020/12/26 02:03:06;;;;;;;12.27;6.97;;;2.20;88.60;;;;;;5054661;28;20040;-74
2020/12/26 02:05:32;;;;;;;14.63;7.17;;;2.20;88.60;;;;;;5037674;28;20451;-75
2020/12/26 02:07:58;;;;;;;14.63;6.77;;;2.20;88.70;;;;;;5036456;28;20025;-74
2020/12/26 02:10:24;;;;;;;15.90;6.73;;;2.20;88.90;;;;;;5054985;28;20071;-74
2020/12/26 02:12:49;;;;;;;13.33;6.87;;;2.20;88.90;;;;;;5036800;28;20505;-74
2020/12/26 02:15:15;;;;;;;13.37;6.27;;;2.20;88.70;;;;;;5055481;28;20064;-74
2020/12/26 02:17:41;;;;;;;13.67;6.60;;;2.20;88.90;;;;;;5037375;28;20531;-74
2020/12/26 02:20:07;;;;;;;14.20;7.13;;;2.20;89.60;;;;;;5036298;28;20543;-75
2020/12/26 02:22:33;;;;;;;15.80;6.30;;;2.30;89.00;;;;;;5054544;28;20063;-74
2020/12/26 02:24:59;;;;;;;18.27;7.63;;;2.30;88.80;;;;;;5054193;28;20462;-74
2020/12/26 02:27:25;;;;;;;13.60;6.80;;;2.20;88.70;;;;;;5054944;28;20033;-74
2020/12/26 02:29:50;;;;;;;13.57;6.93;;;2.20;89.00;;;;;;5054412;28;20029;-74
2020/12/26 02:32:16;;;;;;;17.70;7.00;;;2.20;89.00;;;;;;5036932;28;20036;-74
2020/12/26 02:34:41;;;;;;;14.37;6.93;;;2.20;89.10;;;;;;5036902;28;20029;-74
2020/12/26 02:37:07;;;;;;;11.37;7.17;;;2.20;89.30;;;;;;5054146;28;20025;-74
2020/12/26 02:39:33;;;;;;;15.30;6.93;;;2.10;89.20;;;;;;5036760;28;20079;-74
2020/12/26 02:41:59;;;;;;;13.27;7.00;;;2.10;89.40;;;;;;5036166;28;20037;-74
2020/12/26 02:44:25;;;;;;;13.87;7.10;;;2.20;89.20;;;;;;5054717;28;20025;-74
2020/12/26 02:46:51;;;;;;;13.63;7.10;;;2.20;89.20;;;;;;5053674;28;20572;-74
2020/12/26 02:49:17;;;;;;;13.17;7.10;;;2.20;89.00;;;;;;5036601;28;20064;-74
2020/12/26 02:51:43;;;;;;;15.03;6.90;;;2.20;89.10;;;;;;5036598;28;20462;-75
2020/12/26 02:54:12;;;;;;;18.87;7.80;;;2.20;89.00;;;;;;5053509;28;20486;-74
2020/12/26 02:56:39;;;;;;;13.17;7.33;;;2.20;89.00;;;;;;5054497;28;20043;-74
2020/12/26 02:59:06;;;;;;;15.50;6.97;;;2.20;89.00;;;;;;5035870;28;20040;-74
2020/12/26 03:01:32;;;;;;;15.57;7.57;;;2.20;89.00;;;;;;5035996;28;20090;-74
2020/12/26 03:03:57;;;;;;;13.97;7.10;;;2.20;88.80;;;;;;5035836;28;20026;-74
2020/12/26 03:06:23;;;;;;;14.70;7.63;;;2.20;88.70;;;;;;5036395;28;20390;-74
2020/12/26 03:08:49;;;;;;;13.57;6.70;;;2.20;88.70;;;;;;5053553;28;20027;-74
2020/12/26 03:11:14;;;;;;;13.77;7.10;;;2.20;88.70;;;;;;5054379;28;20109;-74
2020/12/26 03:13:40;;;;;;;15.83;7.00;;;2.20;88.70;;;;;;5036218;28;20417;-74
2020/12/26 03:16:05;;;;;;;14.17;7.03;;;2.20;88.70;;;;;;5053370;28;20523;-74
2020/12/26 03:18:31;;;;;;;15.27;7.30;;;2.30;88.50;;;;;;5053985;28;20029;-74
2020/12/26 03:20:57;;;;;;;12.47;6.87;;;2.30;88.30;;;;;;5053342;28;20021;-74
2020/12/26 03:23:22;;;;;;;13.40;6.87;;;2.30;88.60;;;;;;5053815;28;20041;-74
2020/12/26 03:25:48;;;;;;;14.80;7.00;;;2.20;88.70;;;;;;5053373;28;20473;-74
2020/12/26 03:28:13;;;;;;;15.47;6.97;;;2.20;88.90;;;;;;5036109;28;20037;-74
2020/12/26 03:30:39;;;;;;;20.20;7.73;;;2.10;88.90;;;;;;5053507;28;20060;-74
2020/12/26 03:33:04;;;;;;;13.70;6.90;;;2.20;88.90;;;;;;5053094;28;20029;-74
2020/12/26 03:35:30;;;;;;;15.80;6.20;;;2.20;88.70;;;;;;5053065;28;20021;-74
2020/12/26 03:37:56;;;;;;;11.73;6.73;;;2.20;88.30;;;;;;5035005;28;20029;-74
2020/12/26 03:40:21;;;;;;;13.53;7.47;;;2.10;88.20;;;;;;5035734;28;20055;-74
2020/12/26 03:42:47;;;;;;;14.30;6.43;;;2.10;88.20;;;;;;5035611;28;20065;-74
2020/12/26 03:45:13;;;;;;;15.27;6.27;;;2.10;88.30;;;;;;5052879;28;20036;-74
2020/12/26 03:47:39;;;;;;;13.73;6.63;;;2.10;88.20;;;;;;5053369;28;20079;-74
2020/12/26 03:50:04;;;;;;;11.97;6.40;;;2.00;88.40;;;;;;5052805;28;20096;-74
2020/12/26 03:52:30;;;;;;;14.37;6.37;;;2.00;88.50;;;;;;5053317;28;20031;-74
2020/12/26 03:54:56;;;;;;;15.67;6.73;;;2.00;88.70;;;;;;5052728;28;20432;-74
2020/12/26 03:57:21;;;;;;;14.53;6.70;;;2.00;88.70;;;;;;5035312;28;20533;-74
2020/12/26 03:59:47;;;;;;;15.07;6.70;;;1.90;88.70;;;;;;5052947;28;20482;-74
2020/12/26 04:02:13;;;;;;;15.60;6.57;;;1.90;88.90;;;;;;5034654;28;20037;-74
2020/12/26 04:04:38;;;;;;;14.47;6.67;;;1.90;88.90;;;;;;5035343;28;20029;-75
2020/12/26 04:07:04;;;;;;;13.17;7.00;;;1.90;88.80;;;;;;5052463;28;20082;-74
2020/12/26 04:09:30;;;;;;;13.80;6.97;;;2.00;88.70;;;;;;5034818;28;20025;-74
2020/12/26 04:11:56;;;;;;;15.67;6.77;;;1.90;88.40;;;;;;5034523;28;20159;-74
2020/12/26 04:14:21;;;;;;;17.00;7.80;;;1.90;88.30;;;;;;5035165;28;20087;-74
2020/12/26 04:16:47;;;;;;;16.13;7.53;;;1.80;88.30;;;;;;5034984;28;20103;-74
2020/12/26 04:19:12;;;;;;;13.70;6.60;;;1.80;88.40;;;;;;5052251;28;20021;-74
2020/12/26 04:21:38;;;;;;;14.83;7.43;;;1.80;88.70;;;;;;5053028;28;20033;-74
2020/12/26 04:24:04;;;;;;;11.13;6.70;;;1.70;88.90;;;;;;5052141;28;20028;-74
2020/12/26 04:26:29;;;;;;;15.80;7.17;;;1.70;89.00;;;;;;5034669;28;20028;-74
2020/12/26 04:28:56;;;;;;;14.40;6.80;;;1.70;89.00;;;;;;5051870;28;20390;-74
2020/12/26 04:31:22;;;;;;;13.87;6.73;;;1.80;89.00;;;;;;5052695;28;20484;-74
2020/12/26 04:33:48;;;;;;;13.37;7.20;;;1.70;88.80;;;;;;5034780;28;20029;-74
2020/12/26 04:36:13;;;;;;;13.97;7.13;;;1.70;89.10;;;;;;5034240;28;20079;-74
2020/12/26 04:38:39;;;;;;;13.20;7.03;;;1.70;89.30;;;;;;5035008;28;20386;-74
2020/12/26 04:41:05;;;;;;;16.30;6.67;;;1.70;89.40;;;;;;5052086;28;20029;-74
2020/12/26 04:43:31;;;;;;;14.27;7.20;;;1.70;89.40;;;;;;5034543;28;20466;-74
2020/12/26 04:45:58;;;;;;;16.00;7.13;;;1.70;89.70;;;;;;5051077;28;20025;-74
2020/12/26 04:48:25;;;;;;;18.47;7.37;;;1.70;89.70;;;;;;5034303;28;20028;-74
2020/12/26 04:50:56;;;;;;;14.37;7.30;;;1.60;89.90;;;;;;5052497;28;20474;-74
2020/12/26 04:53:38;;;;;;;16.23;8.03;;;1.50;90.00;;;;;;5052315;28;20474;-74
2020/12/26 04:56:03;;;;;;;16.30;7.32;;;1.50;90.10;;;;;;5034114;28;20055;-75
2020/12/26 04:58:38;;;;;;;14.00;7.03;;;1.40;90.30;;;;;;5034859;28;20478;-74
2020/12/26 05:01:05;;;;;;;15.43;7.00;;;1.50;90.30;;;;;;5034068;28;20025;-74
2020/12/26 05:03:34;;;;;;;15.90;7.27;;;1.50;90.40;;;;;;5034333;28;20037;-74
2020/12/26 05:06:05;;;;;;;14.33;6.93;;;1.50;90.30;;;;;;5051803;28;20100;-74
2020/12/26 05:08:31;;;;;;;16.97;6.93;;;1.50;90.30;;;;;;5052611;28;20370;-74
2020/12/26 05:10:57;;;;;;;17.13;7.37;;;1.50;90.40;;;;;;5033941;28;20029;-74
2020/12/26 05:13:23;;;;;;;12.90;6.63;;;1.50;90.40;;;;;;5034387;28;20029;-75
2020/12/26 05:15:49;;;;;;;18.37;7.50;;;1.50;90.50;;;;;;5034341;28;20363;-74
2020/12/26 05:18:15;;;;;;;15.33;6.93;;;1.50;90.50;;;;;;5033732;28;20029;-74
2020/12/26 05:20:43;;;;;;;17.67;7.37;;;1.50;90.50;;;;;;5034327;28;20028;-74
2020/12/26 05:23:17;;;;;;;16.10;7.50;;;1.50;90.60;;;;;;5033656;28;20033;-74
2020/12/26 05:25:44;;;;;;;15.37;6.93;;;1.50;90.60;;;;;;5034343;28;20056;-74
2020/12/26 05:28:20;;;;;;;14.80;7.00;;;1.50;90.70;;;;;;5051498;28;20127;-74
2020/12/26 05:30:50;;;;;;;14.63;7.50;;;1.60;90.70;;;;;;5052175;28;20028;-74
2020/12/26 05:33:17;;;;;;;18.33;7.50;;;1.60;90.70;;;;;;5033681;28;20033;-74
2020/12/26 05:35:43;;;;;;;16.90;7.47;;;1.50;90.80;;;;;;5052048;28;20052;-74
2020/12/26 05:38:21;;;;;;;16.87;7.53;;;1.50;90.90;;;;;;5033548;28;20051;-74
2020/12/26 05:40:57;;;;;;;15.97;7.10;;;1.50;90.90;;;;;;5034348;28;20029;-74
2020/12/26 05:43:26;;;;;;;16.50;7.97;;;1.50;91.00;;;;;;5034281;28;20040;-74
2020/12/26 05:45:51;;;;;;;15.33;7.43;;;1.50;91.00;;;;;;5034163;28;20029;-74
2020/12/26 05:48:19;;;;;;;14.80;7.27;;;1.50;91.00;;;;;;5033454;28;20359;-74
2020/12/26 05:50:45;;;;;;;18.00;7.83;;;1.50;91.30;;;;;;5051916;28;20025;-74
2020/12/26 05:53:15;;;;;;;14.93;7.37;;;1.50;91.00;;;;;;5051057;28;20029;-74
2020/12/26 05:55:47;;;;;;;14.97;7.20;;;1.50;91.00;;;;;;5051790;28;20475;-74
2020/12/26 05:58:13;;;;;;;17.60;7.47;;;1.50;91.10;;;;;;5035315;28;20058;-74
2020/12/26 06:00:41;;;;;;;13.70;6.57;;;1.40;91.00;;;;;;5037535;28;20040;-74
2020/12/26 06:03:26;;;;;;;16.77;7.10;;;1.50;91.00;;;;;;5036885;28;20029;-74
2020/12/26 06:05:57;;;;;;;14.70;6.47;;;1.50;91.10;;;;;;5055449;28;20029;-74
2020/12/26 06:08:24;;;;;;;20.80;7.30;;;1.40;91.10;;;;;;5055023;28;20025;-74
2020/12/26 06:10:54;;;;;;;16.57;6.80;;;1.40;91.10;;;;;;5037462;28;20112;-74
2020/12/26 06:13:22;;;;;;;17.33;6.47;;;1.50;91.10;;;;;;5036785;28;20462;-74
2020/12/26 06:15:56;;;;;;;14.27;6.07;;;1.50;91.10;;;;;;5036981;28;20064;-74
2020/12/26 06:18:23;;;;;;;12.00;6.10;;;1.50;91.00;;;;;;5054483;28;20033;-74
2020/12/26 06:20:52;;;;;;;15.37;6.43;;;1.50;90.90;;;;;;5055084;28;20100;-74
2020/12/26 06:23:23;;;;;;;16.40;6.13;;;1.60;90.90;;;;;;5054685;28;20323;-74
2020/12/26 06:25:53;;;;;;;15.67;6.40;;;1.60;90.80;;;;;;5037022;28;20025;-74
2020/12/26 06:28:27;;;;;;;14.57;6.63;;;1.60;90.80;;;;;;5036443;28;20352;-74
2020/12/26 06:30:56;;;;;;;13.17;5.77;;;1.60;90.80;;;;;;5054865;28;20112;-74
2020/12/26 06:33:25;;;;;;;15.77;5.77;;;1.60;90.80;;;;;;5036321;28;20033;-74
2020/12/26 06:35:52;;;;;;;11.60;5.43;;;1.60;90.80;;;;;;5055077;28;20116;-75
2020/12/26 06:38:23;;;;;;;11.90;5.83;;;1.60;90.80;;;;;;5054149;28;20051;-74
2020/12/26 06:41:01;;;;;;;12.50;5.83;;;1.60;90.80;;;;;;5036901;28;20535;-74
2020/12/26 06:43:39;;;;;;;14.57;5.90;;;1.60;90.70;;;;;;5036504;28;20090;-74
2020/12/26 06:46:28;;;;;;;15.03;5.80;;;1.70;90.70;;;;;;5036189;28;20359;-74
2020/12/26 06:48:56;;;;;;;11.43;6.07;;;1.60;90.70;;;;;;5025918;28;20036;-74
2020/12/26 06:51:30;;;;;;;12.70;6.37;;;1.60;90.70;;;;;;5036040;28;20075;-74
2020/12/26 06:54:03;;;;;;;14.03;6.17;;;1.60;90.80;;;;;;5036431;28;20122;-74
2020/12/26 06:56:32;;;;;;;10.43;5.37;;;1.60;90.80;;;;;;5054483;28;20033;-74
2020/12/26 06:58:58;;;;;;;12.93;5.50;;;1.60;90.80;;;;;;5036410;28;20060;-74
2020/12/26 07:01:24;;;;;;;13.70;6.00;;;1.50;90.80;;;;;;5054002;28;20029;-74
2020/12/26 07:04:15;;;;;;;13.13;5.63;;;1.60;90.80;;;;;;5036402;28;20095;-74
2020/12/26 07:07:00;;;;;;;11.40;5.37;;;1.60;90.80;;;;;;5036004;28;20028;-74
2020/12/26 07:09:35;;;;;;;12.47;6.03;;;1.60;90.80;;;;;;5035089;28;20082;-75
2020/12/26 07:12:01;;;;;;;13.63;6.17;;;1.60;90.80;;;;;;5054023;28;20025;-74
2020/12/26 07:14:33;;;;;;;11.30;5.07;;;1.60;90.80;;;;;;5054047;28;20021;-74
2020/12/26 07:17:02;;;;;;;13.10;6.28;;;1.60;90.80;;;;;;5036266;28;20083;-74
2020/12/26 07:19:30;;;;;;;16.93;6.00;;;1.60;90.70;;;;;;5053948;28;20025;-74
2020/12/26 07:21:58;;;;;;;13.77;6.30;;;1.60;90.80;;;;;;5036050;28;20033;-74
2020/12/26 07:24:44;;;;;;;14.80;5.63;;;1.60;90.90;;;;;;5035320;28;20025;-74
2020/12/26 07:27:14;;;;;;;17.07;6.83;;;1.60;90.80;;;;;;5035293;28;20489;-74
2020/12/26 07:30:02;;;;;;;18.20;6.40;;;1.50;90.90;;;;;;5053928;28;20029;-74
2020/12/26 07:32:52;;;;;;;15.17;7.23;;;1.50;91.00;;;;;;5053825;28;20053;-74
2020/12/26 07:35:21;;;;;;;16.87;6.70;;;1.50;91.10;;;;;;5025296;28;20441;-74
2020/12/26 07:37:53;;;;;;;15.03;6.53;;;1.50;91.10;;;;;;5035625;28;20529;-74
2020/12/26 07:40:33;;;;;;;12.63;5.97;;;1.40;91.20;;;;;;5053228;28;20025;-74
2020/12/26 07:43:01;;;;;;;15.37;6.23;;;1.40;91.30;;;;;;5035604;28;20041;-75
2020/12/26 07:45:28;;;;;;;13.43;5.93;;;1.40;91.30;;;;;;5034981;28;20483;-74
2020/12/26 07:47:56;;;;;;;17.47;6.70;;;1.40;91.30;;;;;;5035591;28;20025;-74
2020/12/26 07:50:26;;;;;;;13.83;6.20;;;1.40;91.30;;;;;;5035040;28;20449;-75
2020/12/26 07:52:58;;;;;;;14.63;6.17;;;1.40;91.40;;;;;;5035495;28;20371;-75
2020/12/26 07:55:26;;;;;;;13.50;5.40;;;1.40;91.40;;;;;;5034522;28;20156;-75
2020/12/26 07:58:08;;;;;;;18.67;6.77;;;1.40;91.40;;;;;;5035476;28;20056;-75
2020/12/26 08:00:39;;;;;;;20.52;6.28;;;1.40;91.40;;;;;;5053252;28;20047;-75
2020/12/26 08:03:06;;;;;;;17.63;6.63;;;1.40;91.40;;;;;;5052492;28;20488;-74
2020/12/26 08:05:34;;;;;;;14.27;6.20;;;1.40;91.40;;;;;;5053100;28;20036;-75
2020/12/26 08:08:10;;;;;;;13.60;6.43;;;1.40;91.30;;;;;;5035215;28;20029;-75
2020/12/26 08:10:36;;;;;;;17.60;6.43;;;1.40;91.30;;;;;;5035268;28;20426;-74
2020/12/26 08:13:02;;;;;;;19.77;6.97;;;1.50;91.20;;;;;;5052944;28;20117;-75
2020/12/26 08:15:29;;;;;;;13.47;6.60;;;1.50;91.20;;;;;;5052063;28;20079;-75
2020/12/26 08:17:57;;;;;;;13.17;6.10;;;1.50;91.20;;;;;;5035008;28;20036;-75
2020/12/26 08:20:24;;;;;;;16.40;6.87;;;1.50;91.10;;;;;;5052092;28;20108;-75
2020/12/26 08:22:50;;;;;;;18.77;6.23;;;1.50;91.00;;;;;;5052810;28;20116;-74
2020/12/26 08:25:19;;;;;;;19.57;6.63;;;1.50;91.30;;;;;;5034257;28;20115;-75
2020/12/26 08:27:46;;;;;;;14.93;6.53;;;1.50;91.00;;;;;;5052775;28;20067;-75
2020/12/26 08:30:19;;;;;;;16.27;6.90;;;1.60;91.00;;;;;;5034131;28;20036;-74
2020/12/26 08:33:05;;;;;;;15.97;6.40;;;1.60;91.00;;;;;;5052882;28;20044;-75
2020/12/26 08:35:33;;;;;;;16.87;6.57;;;1.60;90.90;;;;;;5052748;28;20025;-75
2020/12/26 08:38:11;;;;;;;13.90;6.33;;;1.60;90.90;;;;;;5034730;28;20469;-75
2020/12/26 08:40:39;;;;;;;14.40;5.93;;;1.60;90.80;;;;;;5034851;28;20108;-75
2020/12/26 08:43:11;;;;;;;14.67;6.00;;;1.70;90.80;;;;;;5034695;28;20080;-75
2020/12/26 08:45:36;;;;;;;14.50;6.28;;;1.70;90.70;;;;;;5034965;28;20462;-74
2020/12/26 08:48:16;;;;;;;14.40;6.60;;;1.70;90.60;;;;;;5052811;28;20028;-75
2020/12/26 08:50:42;;;;;;;12.93;6.47;;;1.80;90.60;;;;;;5034828;28;20583;-75
2020/12/26 08:53:10;;;;;;;13.87;6.10;;;1.80;90.50;;;;;;5051672;28;20024;-74
2020/12/26 08:55:49;;;;;;;18.30;7.30;;;1.80;90.60;;;;;;5052116;28;20482;-75
2020/12/26 08:58:35;;;;;;;15.90;5.90;;;1.80;90.50;;;;;;5051868;28;20082;-75
2020/12/26 09:01:05;;;;;;;13.63;6.17;;;1.90;90.50;;;;;;5034252;28;20040;-75
2020/12/26 09:03:33;;;;;;;17.13;6.43;;;1.80;90.40;;;;;;5034034;28;20033;-75
2020/12/26 09:06:01;;;;;;;18.00;6.83;;;1.90;90.40;;;;;;5052323;28;20029;-75
2020/12/26 09:08:36;;;;;;;17.73;6.30;;;1.90;90.40;;;;;;5033983;28;20116;-76
2020/12/26 09:11:08;;;;;;;17.40;7.07;;;1.90;90.30;;;;;;5052486;28;20518;-74
2020/12/26 09:13:37;;;;;;;15.73;7.23;;;1.90;90.30;;;;;;5052595;28;20052;-74
2020/12/26 09:16:07;;;;;;;13.30;6.20;;;1.90;90.40;;;;;;5052257;28;20031;-75
2020/12/26 09:18:39;;;;;;;14.20;6.30;;;1.90;90.60;;;;;;5033784;28;20025;-75
2020/12/26 09:21:07;;;;;;;12.00;5.63;;;1.90;90.40;;;;;;5034495;28;20116;-75
2020/12/26 09:23:36;;;;;;;18.83;7.07;;;1.90;90.60;;;;;;5033614;28;20037;-75
2020/12/26 09:26:17;;;;;;;17.30;7.47;;;2.00;90.40;;;;;;5034284;28;20099;-75
2020/12/26 09:28:54;;;;;;;18.03;7.20;;;2.00;90.50;;;;;;5052489;28;20083;-75
2020/12/26 09:31:29;;;;;;;14.20;7.00;;;2.00;90.50;;;;;;5051514;28;20025;-75
2020/12/26 09:33:57;;;;;;;20.40;6.77;;;2.00;90.50;;;;;;5037559;28;20037;-75
2020/12/26 09:36:25;;;;;;;17.77;7.67;;;2.10;90.40;;;;;;5055571;28;20462;-74
2020/12/26 09:38:52;;;;;;;18.20;7.30;;;2.10;90.40;;;;;;5055895;28;20024;-75
2020/12/26 09:41:25;;;;;;;16.17;7.17;;;2.20;90.30;;;;;;5037366;28;20083;-74
2020/12/26 09:43:55;;;;;;;17.73;7.33;;;2.20;90.30;;;;;;5037934;28;20032;-74
2020/12/26 09:46:22;;;;;;;16.83;7.07;;;2.20;90.30;;;;;;5037258;28;20032;-74
2020/12/26 09:48:49;;;;;;;15.20;6.80;;;2.20;90.20;;;;;;5037911;28;20462;-75
2020/12/26 09:51:17;;;;;;;13.97;6.87;;;2.20;90.20;;;;;;5055007;28;20524;-74
2020/12/26 09:53:44;;;;;;;17.63;6.43;;;2.20;90.20;;;;;;5034434;28;20053;-75
2020/12/26 09:56:11;;;;;;;17.13;6.17;;;2.30;90.10;;;;;;5035744;28;20025;-75
2020/12/26 09:58:39;;;;;;;15.80;6.40;;;2.30;89.90;;;;;;5034352;28;20025;-74
2020/12/26 10:01:05;;;;;;;14.00;6.60;;;2.40;89.70;;;;;;5034448;28;20025;-74
2020/12/26 10:03:31;;;;;;;17.17;7.00;;;2.40;89.30;;;;;;5034890;28;20246;-74
2020/12/26 10:05:57;;;;;;;12.00;5.93;;;2.50;89.50;;;;;;5035429;28;20032;-75
2020/12/26 10:08:22;;;;;;;11.70;6.13;;;2.50;88.70;;;;;;5033593;28;20029;-75
2020/12/26 10:10:48;;;;;;;13.83;6.30;;;2.50;88.50;;;;;;5035371;28;20051;-75
2020/12/26 10:13:14;;;;;;;14.23;6.00;;;2.60;88.40;;;;;;5034725;28;20383;-75
2020/12/26 10:15:39;;;;;;;13.73;5.93;;;2.60;88.10;;;;;;5034325;28;20029;-75
2020/12/26 10:18:05;;;;;;;12.33;5.57;;;2.60;88.20;;;;;;5035279;28;20025;-75
2020/12/26 10:20:31;;;;;;;15.23;5.87;;;2.60;87.40;;;;;;5033463;28;20030;-75
2020/12/26 10:22:56;;;;;;;13.10;5.57;;;2.60;86.60;;;;;;5035099;28;20449;-75
2020/12/26 10:25:26;;;;;;;13.73;6.30;;;2.60;86.90;;;;;;5033218;28;20045;-75
2020/12/26 10:27:54;;;;;;;16.17;5.57;;;2.60;87.00;;;;;;5035102;28;20112;-75
2020/12/26 10:30:20;;;;;;;9.93;5.30;;;2.70;86.50;;;;;;5033271;28;20029;-75
2020/12/26 10:32:47;;;;;;;9.83;5.10;;;2.60;85.70;;;;;;5033690;28;20471;-75
2020/12/26 10:35:13;;;;;;;12.27;5.33;;;2.60;86.10;;;;;;5035200;28;20033;-75
2020/12/26 10:37:38;;;;;;;12.47;5.07;;;2.70;86.00;;;;;;5034998;28;20038;-75
2020/12/26 10:40:05;;;;;;;10.33;5.50;;;2.70;85.80;;;;;;5033475;28;20022;-75
2020/12/26 10:42:31;;;;;;;10.87;5.83;;;2.80;85.20;;;;;;5034070;28;20087;-75
2020/12/26 10:44:56;;;;;;;11.53;5.63;;;2.70;84.90;;;;;;5034952;28;20033;-75
2020/12/26 10:47:22;;;;;;;13.90;5.90;;;2.70;85.60;;;;;;5032688;28;20033;-74
2020/12/26 10:49:48;;;;;;;13.27;5.97;;;2.70;85.50;;;;;;5034679;28;20029;-74
2020/12/26 10:52:14;;;;;;;12.67;6.20;;;2.60;85.70;;;;;;5033304;28;20071;-75
2020/12/26 10:54:39;;;;;;;13.80;6.43;;;2.60;85.70;;;;;;5033207;28;20487;-75
2020/12/26 10:57:05;;;;;;;12.77;5.93;;;2.60;85.80;;;;;;5033115;28;20466;-75
2020/12/26 10:59:30;;;;;;;13.27;6.43;;;2.60;86.10;;;;;;5033880;28;20524;-74
2020/12/26 11:01:56;;;;;;;13.83;6.13;;;2.70;85.90;;;;;;5034446;28;20144;-74
2020/12/26 11:04:22;;;;;;;14.97;6.40;;;2.80;85.60;;;;;;5032550;28;20030;-75
2020/12/26 11:06:51;;;;;;;15.97;7.00;;;2.90;84.40;;;;;;5033227;28;20482;-74
2020/12/26 11:09:19;;;;;;;13.53;6.47;;;3.00;84.10;;;;;;5032409;28;20030;-74
2020/12/26 11:11:49;;;;;;;14.83;5.97;;;3.10;84.00;;;;;;5032853;28;20022;-75
2020/12/26 11:14:16;;;;;;;14.17;6.60;;;3.20;84.00;;;;;;5032769;28;20079;-75
2020/12/26 11:16:49;;;;;;;13.73;6.63;;;3.20;84.10;;;;;;5032820;28;20057;-75
2020/12/26 11:19:16;;;;;;;13.43;6.33;;;3.20;83.80;;;;;;5032811;28;20029;-75
2020/12/26 11:21:42;;;;;;;14.70;6.33;;;3.30;83.80;;;;;;5033939;28;20032;-75
2020/12/26 11:24:09;;;;;;;14.13;7.00;;;3.40;83.60;;;;;;5032671;28;20124;-74
2020/12/26 11:26:35;;;;;;;19.40;7.10;;;3.60;82.90;;;;;;5031812;28;20037;-74
2020/12/26 11:29:01;;;;;;;13.63;6.47;;;3.60;82.90;;;;;;5032498;28;20475;-75
2020/12/26 11:31:27;;;;;;;17.33;6.43;;;3.60;82.80;;;;;;5031655;28;20124;-74
2020/12/26 11:33:53;;;;;;;15.73;6.50;;;3.80;82.40;;;;;;5032568;28;20069;-75
2020/12/26 11:36:20;;;;;;;13.40;6.37;;;3.80;81.70;;;;;;5033154;28;20036;-74
2020/12/26 11:38:46;;;;;;;15.63;6.60;;;3.80;80.60;;;;;;5033680;28;20100;-74
2020/12/26 11:41:27;;;;;;;16.43;6.97;;;3.80;81.50;;;;;;5033686;28;20037;-74
2020/12/26 11:43:54;;;;;;;15.30;7.40;;;3.80;81.00;;;;;;5033620;28;20037;-76
2020/12/26 11:46:21;;;;;;;14.50;7.07;;;3.60;81.30;;;;;;5032961;28;20033;-74
2020/12/26 11:48:47;;;;;;;15.50;6.57;;;3.40;81.90;;;;;;5032320;28;20026;-75
2020/12/26 11:51:13;;;;;;;13.57;7.10;;;3.50;82.00;;;;;;5033483;28;20175;-74
2020/12/26 11:53:39;;;;;;;17.27;7.20;;;3.60;82.00;;;;;;5031363;28;20049;-75
2020/12/26 11:56:09;;;;;;;18.53;7.57;;;3.70;81.50;;;;;;5032963;28;20025;-75
2020/12/26 11:58:35;;;;;;;11.80;6.60;;;3.70;81.40;;;;;;5032544;28;20482;-74
2020/12/26 12:01:01;;;;;;;14.30;6.40;;;3.50;80.90;;;;;;5033339;28;20475;-75
2020/12/26 12:03:27;;;;;;;14.90;7.20;;;3.50;81.50;;;;;;5032323;28;20034;-74
2020/12/26 12:05:53;;;;;;;13.57;6.30;;;3.60;81.00;;;;;;5033312;28;20378;-75
2020/12/26 12:08:19;;;;;;;16.90;7.63;;;3.50;81.10;;;;;;5031616;28;20478;-74
2020/12/26 12:10:44;;;;;;;14.70;6.90;;;3.40;81.90;;;;;;5031874;28;20021;-74
2020/12/26 12:13:10;;;;;;;16.37;7.23;;;3.40;82.10;;;;;;5031840;28;20149;-75
2020/12/26 12:15:35;;;;;;;15.63;7.40;;;3.70;80.90;;;;;;5031262;28;20091;-75
2020/12/26 12:18:01;;;;;;;12.97;6.50;;;3.90;79.50;;;;;;5033041;28;20060;-75
2020/12/26 12:20:28;;;;;;;14.17;6.70;;;3.90;79.50;;;;;;5031167;28;20528;-74
2020/12/26 12:22:53;;;;;;;12.17;5.93;;;4.00;79.30;;;;;;5031922;28;20033;-75
2020/12/26 12:25:20;;;;;;;12.63;6.70;;;3.90;79.70;;;;;;5031478;28;20040;-75
2020/12/26 12:27:45;;;;;;;17.90;8.00;;;3.90;79.10;;;;;;5031557;28;20053;-75
2020/12/26 12:30:11;;;;;;;16.27;6.63;;;3.90;79.90;;;;;;5032861;28;20048;-75
2020/12/26 12:32:36;;;;;;;14.33;7.20;;;3.90;80.20;;;;;;5032244;28;20044;-74
2020/12/26 12:35:02;;;;;;;12.50;7.00;;;4.00;79.60;;;;;;5033081;28;20060;-75
2020/12/26 12:37:28;;;;;;;11.33;5.80;;;4.00;79.10;;;;;;5032460;28;20371;-74
2020/12/26 12:39:54;;;;;;;13.10;6.50;;;4.00;78.60;;;;;;5031526;28;20116;-75
2020/12/26 12:42:19;;;;;;;10.33;5.93;;;4.00;79.30;;;;;;5031346;28;20082;-75
2020/12/26 12:44:45;;;;;;;18.57;6.17;;;4.00;79.30;;;;;;5030770;28;20029;-75
2020/12/26 12:47:10;;;;;;;12.73;5.80;;;4.10;79.10;;;;;;5031324;28;20029;-75
2020/12/26 12:49:36;;;;;;;17.20;6.20;;;4.10;79.00;;;;;;5031661;28;20360;-75
2020/12/26 12:52:05;;;;;;;12.73;5.90;;;4.10;78.80;;;;;;5031237;28;20044;-75